Time;durP1;ratioP1;P1;durP2;ratioP2;P2;SDS_P1;SDS_P2;PMS_P1;PMS_P2;Temp;Humidity;BMP_temperature;BMP_pressure;BME280_temperature;BME280_humidity;BME280_pressure;Samples;Min_cycle;Max_cycle;Signal;HPM_P1;HPM_P2
2023/12/22 00:00:54;;;;;;;2.97;1.85;;;9.30;93.40;;;;;;4931076;29;20052;-93
2023/12/22 00:03:19;;;;;;;8.82;1.88;;;9.30;93.80;;;;;;4950049;29;20032;-93
2023/12/22 00:05:45;;;;;;;4.00;1.42;;;9.30;90.40;;;;;;4940800;29;20060;-93
2023/12/22 00:08:13;;;;;;;4.57;1.42;;;9.40;88.40;;;;;;4930736;29;20028;-93
2023/12/22 00:10:39;;;;;;;2.47;0.98;;;9.50;89.10;;;;;;4929494;29;20038;-92
2023/12/22 00:13:05;;;;;;;4.32;1.80;;;9.40;89.40;;;;;;4940791;29;20028;-93
2023/12/22 00:15:30;;;;;;;7.85;1.92;;;9.30;89.30;;;;;;4929816;29;20036;-94
2023/12/22 00:17:59;;;;;;;1.42;1.02;;;9.50;85.10;;;;;;4929431;29;20028;-95
2023/12/22 00:20:25;;;;;;;4.40;1.33;;;9.50;87.30;;;;;;4941504;29;20019;-94
2023/12/22 00:22:51;;;;;;;3.35;1.70;;;9.50;86.70;;;;;;4949098;29;20634;-93
2023/12/22 00:25:16;;;;;;;4.60;1.15;;;9.50;86.20;;;;;;4940577;29;20032;-93
2023/12/22 00:27:42;;;;;;;2.22;1.48;;;9.50;86.90;;;;;;4929216;29;20038;-93
2023/12/22 00:30:08;;;;;;;5.15;1.80;;;9.50;87.40;;;;;;4947684;29;20136;-92
2023/12/22 00:32:34;;;;;;;3.47;2.08;;;9.40;87.70;;;;;;4938895;29;20404;-93
2023/12/22 00:34:59;;;;;;;3.33;1.27;;;9.30;88.50;;;;;;4937648;29;20043;-92
2023/12/22 00:37:25;;;;;;;6.03;1.45;;;9.20;88.50;;;;;;4928937;29;20016;-93
2023/12/22 00:39:54;;;;;;;4.75;0.98;;;9.30;86.80;;;;;;4929014;29;20032;-93
2023/12/22 00:42:19;;;;;;;4.38;2.03;;;9.30;87.90;;;;;;4930140;29;20032;-94
2023/12/22 00:44:45;;;;;;;5.88;2.10;;;9.30;87.40;;;;;;4938688;29;20078;-93
2023/12/22 00:47:11;;;;;;;4.18;3.45;;;9.20;88.50;;;;;;4929505;29;20380;-93
2023/12/22 00:49:36;;;;;;;5.05;1.58;;;9.20;87.70;;;;;;4926774;29;20026;-93
2023/12/22 00:52:02;;;;;;;2.58;1.38;;;9.10;88.00;;;;;;4949617;29;20042;-93
2023/12/22 00:54:30;;;;;;;4.63;2.10;;;9.10;88.70;;;;;;4933562;29;20112;-93
2023/12/22 00:56:56;;;;;;;8.70;1.95;;;9.10;89.70;;;;;;4946357;29;20028;-93
2023/12/22 00:59:21;;;;;;;2.80;2.28;;;9.00;89.30;;;;;;4930296;29;20036;-94
2023/12/22 01:01:47;;;;;;;2.75;1.52;;;8.90;87.50;;;;;;4945716;29;20028;-92
2023/12/22 01:04:16;;;;;;;3.58;1.33;;;8.90;85.30;;;;;;4949290;29;20028;-94
2023/12/22 01:06:41;;;;;;;3.65;1.48;;;8.90;83.00;;;;;;4933045;29;20092;-92
2023/12/22 01:09:07;;;;;;;2.60;0.80;;;8.90;81.60;;;;;;4930169;29;20028;-91
2023/12/22 01:11:33;;;;;;;2.33;2.08;;;8.90;78.70;;;;;;4930175;29;20040;-93
2023/12/22 01:14:04;;;;;;;4.90;1.92;;;9.00;77.00;;;;;;4944383;29;20023;-94
2023/12/22 01:16:30;;;;;;;2.13;0.77;;;9.00;76.70;;;;;;4941381;29;20028;-95
2023/12/22 01:18:55;;;;;;;1.85;0.82;;;8.90;78.10;;;;;;4941056;29;20048;-92
2023/12/22 01:21:21;;;;;;;3.80;1.60;;;8.90;77.70;;;;;;4928755;29;20024;-93
2023/12/22 01:23:47;;;;;;;4.50;1.08;;;8.80;79.00;;;;;;4928713;29;20039;-93
2023/12/22 01:26:13;;;;;;;5.93;1.67;;;8.80;76.80;;;;;;4929307;29;20159;-95
2023/12/22 01:28:38;;;;;;;2.90;0.77;;;8.90;78.00;;;;;;4944095;29;20047;-94
2023/12/22 01:31:04;;;;;;;1.70;0.93;;;8.70;79.90;;;;;;4931353;29;20039;-93
2023/12/22 01:33:30;;;;;;;1.98;1.23;;;8.60;82.30;;;;;;4945988;29;20047;-94
2023/12/22 01:35:58;;;;;;;5.13;1.73;;;8.40;86.70;;;;;;4946575;29;20036;-93
2023/12/22 01:38:24;;;;;;;2.60;1.33;;;8.30;89.30;;;;;;4928824;29;20035;-93
2023/12/22 01:40:49;;;;;;;2.08;0.63;;;8.20;90.70;;;;;;4930549;29;20032;-92
2023/12/22 01:43:16;;;;;;;2.78;0.77;;;8.20;91.50;;;;;;4947797;29;20047;-93
2023/12/22 01:45:45;;;;;;;1.67;1.58;;;8.10;92.70;;;;;;4947751;28;20036;-94
2023/12/22 01:48:11;;;;;;;2.38;1.27;;;8.10;93.40;;;;;;4947116;29;20027;-93
2023/12/22 01:50:44;;;;;;;2.03;0.80;;;8.10;93.80;;;;;;4947937;29;20079;-93
2023/12/22 01:53:10;;;;;;;1.67;0.90;;;8.00;94.40;;;;;;4942899;29;20119;-93
2023/12/22 01:55:36;;;;;;;1.90;0.70;;;8.10;93.20;;;;;;4948900;29;20083;-95
2023/12/22 01:58:03;;;;;;;1.60;0.98;;;8.10;94.00;;;;;;4933088;29;20557;-94
2023/12/22 02:00:28;;;;;;;4.60;2.05;;;8.10;95.00;;;;;;4934288;29;20028;-95
2023/12/22 02:02:54;;;;;;;6.07;1.48;;;8.00;94.80;;;;;;4927853;29;20028;-93
2023/12/22 02:05:20;;;;;;;1.77;0.65;;;8.00;94.90;;;;;;4939204;29;20031;-93
2023/12/22 02:07:49;;;;;;;0.95;0.85;;;8.10;96.20;;;;;;4930145;29;20028;-94
2023/12/22 02:10:15;;;;;;;2.38;1.42;;;8.10;97.30;;;;;;4931337;29;20062;-94
2023/12/22 02:12:42;;;;;;;3.90;3.33;;;8.00;98.20;;;;;;4930715;29;20290;-94
2023/12/22 02:15:08;;;;;;;3.35;0.60;;;8.00;98.30;;;;;;4944877;29;20020;-93
2023/12/22 02:17:50;;;;;;;1.45;1.35;;;8.00;98.70;;;;;;4931765;29;20092;-94
2023/12/22 02:20:16;;;;;;;4.53;1.80;;;8.00;99.00;;;;;;4937687;29;20529;-92
2023/12/22 02:22:42;;;;;;;3.70;1.15;;;8.00;99.40;;;;;;4946886;29;20047;-93
2023/12/22 02:25:08;;;;;;;1.65;0.80;;;8.00;99.80;;;;;;4942321;29;20032;-94
2023/12/22 02:27:49;;;;;;;2.55;1.00;;;8.00;99.10;;;;;;4940737;29;20032;-92
2023/12/22 02:30:49;;;;;;;8.88;2.00;;;8.10;99.30;;;;;;4944157;29;20266;-93
2023/12/22 02:33:16;;;;;;;3.25;1.70;;;8.10;99.70;;;;;;4931025;29;20043;-93
2023/12/22 02:35:44;;;;;;;4.00;1.52;;;8.10;99.90;;;;;;4945324;28;20039;-92
2023/12/22 02:38:13;;;;;;;6.32;1.85;;;8.10;99.90;;;;;;4942320;29;20024;-94
2023/12/22 02:40:39;;;;;;;3.15;1.73;;;8.10;99.90;;;;;;4927979;29;20039;-93
2023/12/22 02:43:06;;;;;;;2.65;1.25;;;8.10;99.90;;;;;;4948724;29;20083;-93
2023/12/22 02:45:32;;;;;;;5.70;1.13;;;8.10;99.90;;;;;;4945449;29;20035;-94
2023/12/22 02:48:00;;;;;;;6.20;1.67;;;8.10;99.90;;;;;;4943543;29;20031;-93
2023/12/22 02:50:26;;;;;;;2.25;1.00;;;8.20;99.90;;;;;;4948007;29;20028;-94
2023/12/22 02:52:52;;;;;;;3.50;1.25;;;8.10;99.90;;;;;;4931029;29;20064;-93
2023/12/22 02:55:20;;;;;;;5.95;1.63;;;8.10;99.90;;;;;;4929901;29;20151;-94
2023/12/22 02:57:46;;;;;;;4.05;1.50;;;8.10;97.90;;;;;;4943376;29;20290;-94
2023/12/22 03:00:12;;;;;;;4.72;1.80;;;8.20;96.80;;;;;;4932564;29;20020;-93
2023/12/22 03:02:38;;;;;;;3.58;0.95;;;8.20;96.10;;;;;;4935515;29;20104;-94
2023/12/22 03:05:04;;;;;;;5.32;1.67;;;8.20;94.80;;;;;;4938002;29;20034;-94
2023/12/22 03:07:30;;;;;;;2.35;1.05;;;8.30;94.60;;;;;;4952871;29;20087;-94
2023/12/22 03:09:57;;;;;;;2.40;1.10;;;8.30;92.80;;;;;;4932923;29;20083;-94
2023/12/22 03:12:32;;;;;;;2.40;1.08;;;8.30;90.00;;;;;;4939799;29;20032;-93
2023/12/22 03:15:00;;;;;;;5.47;1.70;;;8.40;89.60;;;;;;4947698;29;20038;-95
2023/12/22 03:17:26;;;;;;;2.50;1.17;;;8.40;90.60;;;;;;4944620;29;20109;-93
2023/12/22 03:19:51;;;;;;;2.25;1.85;;;8.40;90.40;;;;;;4928909;29;20032;-93
2023/12/22 03:22:17;;;;;;;2.63;1.23;;;8.30;91.20;;;;;;4951216;29;20020;-93
2023/12/22 03:24:44;;;;;;;2.28;1.35;;;8.30;91.90;;;;;;4950930;29;20179;-94
2023/12/22 03:27:09;;;;;;;2.85;1.10;;;8.20;92.90;;;;;;4951678;28;20032;-92
2023/12/22 03:29:35;;;;;;;2.28;1.13;;;8.20;94.00;;;;;;4953782;28;20079;-94
2023/12/22 03:32:01;;;;;;;3.55;0.95;;;8.20;95.10;;;;;;4946520;29;20092;-93
2023/12/22 03:34:26;;;;;;;3.95;1.23;;;8.20;95.00;;;;;;4941279;28;20056;-94
2023/12/22 03:36:52;;;;;;;6.95;1.00;;;8.20;95.90;;;;;;4943757;29;20020;-93
2023/12/22 03:39:18;;;;;;;2.65;1.35;;;8.10;97.30;;;;;;4950421;28;20040;-93
2023/12/22 03:41:43;;;;;;;3.67;1.83;;;8.10;98.10;;;;;;4958039;28;20016;-93
2023/12/22 03:44:09;;;;;;;4.70;1.17;;;8.10;98.80;;;;;;4960302;28;20046;-93
2023/12/22 03:46:35;;;;;;;4.35;1.77;;;8.00;99.20;;;;;;4953417;28;20036;-92
2023/12/22 03:49:00;;;;;;;3.13;0.98;;;8.00;99.90;;;;;;4942260;29;20028;-93
2023/12/22 03:51:26;;;;;;;1.55;1.45;;;8.00;99.90;;;;;;4934867;29;20032;-92
2023/12/22 03:53:51;;;;;;;5.28;1.88;;;7.90;99.90;;;;;;4941183;28;20034;-94
2023/12/22 03:56:18;;;;;;;7.55;1.48;;;7.80;99.90;;;;;;4952366;28;20031;-94
2023/12/22 03:58:44;;;;;;;4.55;1.02;;;7.70;99.90;;;;;;4958032;29;20079;-94
2023/12/22 04:01:14;;;;;;;5.53;1.77;;;7.60;99.90;;;;;;4957132;29;20028;-93
2023/12/22 04:03:39;;;;;;;2.33;0.93;;;7.60;99.90;;;;;;4948846;29;20068;-92
2023/12/22 04:06:05;;;;;;;9.30;2.42;;;7.70;99.90;;;;;;4940596;28;20012;-91
2023/12/22 04:08:31;;;;;;;11.43;2.08;;;7.70;99.90;;;;;;4950500;28;20051;-92
2023/12/22 04:10:56;;;;;;;4.07;1.48;;;7.70;99.90;;;;;;4955912;29;20048;-92
2023/12/22 04:13:22;;;;;;;6.38;1.27;;;7.70;99.90;;;;;;4941396;29;20538;-92
2023/12/22 04:15:48;;;;;;;9.25;1.92;;;7.70;99.90;;;;;;4934991;29;20043;-92
2023/12/22 04:18:13;;;;;;;7.47;1.58;;;7.70;99.90;;;;;;4934908;29;20032;-92
2023/12/22 04:20:39;;;;;;;6.05;1.95;;;7.70;99.90;;;;;;4936637;29;20032;-92
2023/12/22 04:23:05;;;;;;;7.18;1.77;;;7.70;99.90;;;;;;4936877;29;20032;-93
2023/12/22 04:25:30;;;;;;;6.20;2.00;;;7.70;99.90;;;;;;4936144;29;20043;-92
2023/12/22 04:27:56;;;;;;;5.97;1.95;;;7.70;99.90;;;;;;4953254;29;20020;-92
2023/12/22 04:30:22;;;;;;;6.60;1.60;;;7.70;99.90;;;;;;4956205;28;20063;-93
2023/12/22 04:32:47;;;;;;;5.18;1.98;;;7.80;99.90;;;;;;4955928;28;20058;-93
2023/12/22 04:35:16;;;;;;;6.13;1.40;;;8.00;99.00;;;;;;4948408;29;20083;-93
2023/12/22 04:37:41;;;;;;;5.45;1.65;;;7.80;99.90;;;;;;4954553;29;20055;-92
2023/12/22 04:40:07;;;;;;;4.85;1.35;;;7.80;99.90;;;;;;4952945;29;20059;-92
2023/12/22 04:42:33;;;;;;;7.53;1.80;;;7.80;99.90;;;;;;4950196;29;20020;-91
2023/12/22 04:44:59;;;;;;;4.70;1.67;;;7.80;99.90;;;;;;4949647;29;20114;-90
2023/12/22 04:47:24;;;;;;;7.15;1.90;;;7.80;99.90;;;;;;4933887;29;20032;-90
2023/12/22 04:49:50;;;;;;;4.57;1.73;;;7.80;99.70;;;;;;4922223;29;20032;-92
2023/12/22 04:52:15;;;;;;;7.82;1.67;;;7.90;99.70;;;;;;4925992;29;20083;-92
2023/12/22 04:54:41;;;;;;;6.63;2.65;;;7.90;99.90;;;;;;4940636;29;20039;-91
2023/12/22 04:57:07;;;;;;;4.85;3.22;;;7.90;99.90;;;;;;4931477;29;20459;-92
2023/12/22 04:59:32;;;;;;;7.05;2.65;;;8.00;99.50;;;;;;4943480;29;20102;-92
2023/12/22 05:01:58;;;;;;;3.90;1.35;;;8.00;99.10;;;;;;4945289;29;20023;-91
2023/12/22 05:04:24;;;;;;;7.88;1.55;;;8.00;99.40;;;;;;4946433;28;20046;-92
2023/12/22 05:06:49;;;;;;;8.20;1.52;;;8.10;98.40;;;;;;4941005;29;20035;-92
2023/12/22 05:09:16;;;;;;;14.50;4.70;;;8.20;96.50;;;;;;4943756;29;20114;-92
2023/12/22 05:11:41;;;;;;;7.28;2.15;;;8.20;97.10;;;;;;4943867;29;20059;-94
2023/12/22 05:14:07;;;;;;;6.75;1.95;;;8.20;96.10;;;;;;4945523;29;20032;-92
2023/12/22 05:16:33;;;;;;;8.30;3.92;;;8.20;96.30;;;;;;4925849;29;20035;-92
2023/12/22 05:18:59;;;;;;;10.80;3.20;;;8.20;96.10;;;;;;4945284;29;20024;-92
2023/12/22 05:21:25;;;;;;;9.93;2.63;;;8.30;95.90;;;;;;4929202;29;20030;-92
2023/12/22 05:23:53;;;;;;;8.80;2.20;;;8.20;97.20;;;;;;4947413;29;20181;-93
2023/12/22 05:26:20;;;;;;;7.50;1.92;;;8.30;95.10;;;;;;4932007;29;20035;-94
2023/12/22 05:28:46;;;;;;;5.55;1.65;;;8.40;92.80;;;;;;4947709;29;20031;-94
2023/12/22 05:31:12;;;;;;;10.45;1.90;;;8.40;91.40;;;;;;4942885;29;20031;-92
2023/12/22 05:33:38;;;;;;;6.80;2.42;;;8.50;90.80;;;;;;4942781;29;20020;-92
2023/12/22 05:36:04;;;;;;;6.55;2.80;;;8.50;89.40;;;;;;4932168;29;20030;-92
2023/12/22 05:38:30;;;;;;;7.60;1.63;;;8.60;89.80;;;;;;4938867;29;20633;-92
2023/12/22 05:40:56;;;;;;;12.15;2.65;;;8.60;90.80;;;;;;4932504;29;20059;-91
2023/12/22 05:43:22;;;;;;;10.50;2.72;;;8.50;91.80;;;;;;4946568;28;20011;-93
2023/12/22 05:45:47;;;;;;;9.20;2.00;;;8.60;90.90;;;;;;4957319;28;20036;-92
2023/12/22 05:48:13;;;;;;;7.07;1.80;;;8.50;91.20;;;;;;4935045;29;20099;-93
2023/12/22 05:50:39;;;;;;;7.57;1.73;;;8.50;90.50;;;;;;4949031;29;20087;-93
2023/12/22 05:53:04;;;;;;;12.32;1.85;;;8.50;91.90;;;;;;4950655;29;20039;-93
2023/12/22 05:55:30;;;;;;;7.40;3.35;;;8.40;91.90;;;;;;4933909;29;20035;-95
2023/12/22 05:57:55;;;;;;;8.55;2.30;;;8.40;92.60;;;;;;4933922;29;20039;-92
2023/12/22 06:00:21;;;;;;;5.15;2.85;;;8.50;88.90;;;;;;4947653;29;20042;-91
2023/12/22 06:02:47;;;;;;;7.65;3.55;;;8.60;88.30;;;;;;4927856;29;20399;-93
2023/12/22 06:05:13;;;;;;;9.88;2.00;;;8.60;89.40;;;;;;4931207;29;20115;-92
2023/12/22 06:07:40;;;;;;;4.43;2.03;;;8.50;90.00;;;;;;4930132;29;20023;-93
2023/12/22 06:10:07;;;;;;;7.75;2.40;;;8.50;89.90;;;;;;4939638;29;20040;-92
2023/12/22 06:12:32;;;;;;;11.07;4.07;;;8.50;90.50;;;;;;4940941;29;20367;-92
2023/12/22 06:15:01;;;;;;;7.63;1.80;;;8.40;90.50;;;;;;4940783;29;20023;-92
2023/12/22 06:17:27;;;;;;;4.13;1.85;;;8.50;90.60;;;;;;4940215;29;20023;-91
2023/12/22 06:19:52;;;;;;;6.90;1.70;;;8.50;89.40;;;;;;4924761;29;20063;-93
2023/12/22 06:22:18;;;;;;;9.25;4.18;;;8.50;91.00;;;;;;4938788;29;20387;-93
2023/12/22 06:24:44;;;;;;;9.18;1.80;;;8.40;91.70;;;;;;4939076;29;20019;-92
2023/12/22 06:27:10;;;;;;;6.03;1.55;;;8.40;92.10;;;;;;4943704;29;20035;-92
2023/12/22 06:29:35;;;;;;;8.93;2.10;;;8.40;93.60;;;;;;4943113;29;20024;-92
2023/12/22 06:32:01;;;;;;;7.55;1.83;;;8.30;94.70;;;;;;4948361;29;20083;-91
2023/12/22 06:34:27;;;;;;;8.93;1.70;;;8.20;96.50;;;;;;4939818;29;20047;-92
2023/12/22 06:36:52;;;;;;;7.28;2.13;;;8.20;96.60;;;;;;4951288;29;20028;-93
2023/12/22 06:39:19;;;;;;;5.38;1.42;;;8.20;97.80;;;;;;4935120;29;20052;-92
2023/12/22 06:41:45;;;;;;;6.57;1.50;;;8.20;97.90;;;;;;4927369;29;20024;-93
2023/12/22 06:44:10;;;;;;;10.63;4.78;;;8.20;99.30;;;;;;4942546;29;20492;-90
2023/12/22 06:46:36;;;;;;;9.32;2.72;;;8.10;99.90;;;;;;4943802;29;20080;-92
2023/12/22 06:49:02;;;;;;;11.85;2.50;;;8.10;99.90;;;;;;4943493;29;20023;-92
2023/12/22 06:51:35;;;;;;;9.23;2.45;;;8.10;99.90;;;;;;4943274;29;20031;-92
2023/12/22 06:54:01;;;;;;;13.75;3.20;;;8.00;99.90;;;;;;4942854;29;20031;-93
2023/12/22 06:56:29;;;;;;;9.85;1.65;;;8.00;99.90;;;;;;4941099;29;20028;-92
2023/12/22 06:58:57;;;;;;;12.93;2.75;;;8.10;99.90;;;;;;4941050;29;20120;-92
2023/12/22 07:01:22;;;;;;;9.43;2.28;;;8.00;99.90;;;;;;4918803;29;20047;-93
2023/12/22 07:03:49;;;;;;;9.40;2.40;;;8.00;99.90;;;;;;4941508;29;20031;-93
2023/12/22 07:06:22;;;;;;;7.32;1.85;;;7.90;99.90;;;;;;4922240;29;20016;-93
2023/12/22 07:09:11;;;;;;;12.38;2.10;;;7.90;99.90;;;;;;4924191;29;20024;-94
2023/12/22 07:11:40;;;;;;;6.32;2.35;;;7.80;99.90;;;;;;4945292;29;20016;-94
2023/12/22 07:14:06;;;;;;;8.13;2.33;;;7.80;99.90;;;;;;4927057;29;20032;-93
2023/12/22 07:16:36;;;;;;;11.02;3.22;;;7.80;99.90;;;;;;4937009;29;20050;-93
2023/12/22 07:19:12;;;;;;;9.75;3.45;;;7.70;99.90;;;;;;4948924;28;20118;-94
2023/12/22 07:21:38;;;;;;;13.55;2.42;;;7.80;99.90;;;;;;4931530;28;20095;-93
2023/12/22 07:24:05;;;;;;;14.40;3.42;;;7.70;99.90;;;;;;4930098;29;20047;-94
2023/12/22 07:26:31;;;;;;;8.85;2.22;;;7.60;99.90;;;;;;4931898;28;20027;-93
2023/12/22 07:28:58;;;;;;;16.90;4.95;;;7.50;99.90;;;;;;4950166;28;20458;-92
2023/12/22 07:31:24;;;;;;;11.43;2.70;;;7.50;99.90;;;;;;4937758;29;20020;-94
2023/12/22 07:33:50;;;;;;;11.88;2.25;;;7.50;99.90;;;;;;4945220;29;20114;-93
2023/12/22 07:36:16;;;;;;;11.68;2.17;;;7.40;99.90;;;;;;4938337;29;20111;-94
2023/12/22 07:38:41;;;;;;;16.02;2.92;;;7.40;99.90;;;;;;4928805;29;20040;-93
2023/12/22 07:41:11;;;;;;;11.25;4.18;;;7.40;99.90;;;;;;4943911;29;20036;-96
2023/12/22 07:43:37;;;;;;;7.93;2.45;;;7.40;99.90;;;;;;4943978;29;20039;-93
2023/12/22 07:46:03;;;;;;;14.73;3.22;;;7.40;99.90;;;;;;4935161;29;20039;-93
2023/12/22 07:48:32;;;;;;;15.98;3.15;;;7.30;99.90;;;;;;4934963;29;20116;-94
2023/12/22 07:51:00;;;;;;;15.40;4.18;;;7.30;99.90;;;;;;4932071;29;20032;-94
2023/12/22 07:53:26;;;;;;;12.32;3.08;;;7.40;99.90;;;;;;4948974;29;20043;-94
2023/12/22 07:55:55;;;;;;;13.95;4.03;;;7.50;99.90;;;;;;4937565;29;20032;-95
2023/12/22 07:58:24;;;;;;;11.82;3.42;;;7.60;99.90;;;;;;4937536;29;20016;-94
2023/12/22 08:00:52;;;;;;;10.68;3.42;;;7.70;99.90;;;;;;4947070;29;20031;-93
2023/12/22 08:03:26;;;;;;;8.50;2.13;;;7.80;99.90;;;;;;4937618;29;20031;-93
2023/12/22 08:05:54;;;;;;;12.98;3.30;;;7.80;99.90;;;;;;4939957;29;20020;-93
2023/12/22 08:08:20;;;;;;;9.48;2.88;;;7.90;99.90;;;;;;4948549;29;20034;-92
2023/12/22 08:10:45;;;;;;;7.53;2.58;;;8.00;99.90;;;;;;4947197;29;20055;-94
2023/12/22 08:13:13;;;;;;;11.52;2.13;;;8.10;99.90;;;;;;4942964;29;20036;-95
2023/12/22 08:15:41;;;;;;;11.98;2.25;;;8.10;99.90;;;;;;4929103;29;20716;-94
2023/12/22 08:18:07;;;;;;;7.90;2.80;;;8.10;99.90;;;;;;4948476;29;20044;-95
2023/12/22 08:20:33;;;;;;;11.07;4.05;;;8.20;99.90;;;;;;4931224;29;20129;-95
2023/12/22 08:22:59;;;;;;;7.72;2.35;;;8.20;99.90;;;;;;4942014;29;20024;-93
2023/12/22 08:25:27;;;;;;;9.80;2.83;;;8.30;99.90;;;;;;4951996;28;20022;-94
2023/12/22 08:27:53;;;;;;;9.30;2.03;;;8.30;99.90;;;;;;4928591;29;20040;-94
2023/12/22 08:30:25;;;;;;;13.90;2.63;;;8.30;99.90;;;;;;4934453;29;20092;-94
2023/12/22 08:33:12;;;;;;;12.02;3.35;;;8.40;99.90;;;;;;4921111;29;20035;-93
2023/12/22 08:35:44;;;;;;;10.38;2.97;;;8.40;99.00;;;;;;4951845;29;20007;-93
2023/12/22 08:38:13;;;;;;;12.38;2.28;;;8.40;97.10;;;;;;4956256;29;20023;-93
2023/12/22 08:40:41;;;;;;;21.65;4.38;;;8.40;99.20;;;;;;4953937;29;20023;-94
2023/12/22 08:43:09;;;;;;;12.80;3.03;;;8.40;99.20;;;;;;4926751;29;20028;-94
2023/12/22 08:45:46;;;;;;;14.95;3.22;;;8.40;99.30;;;;;;4951497;29;20032;-94
2023/12/22 08:48:12;;;;;;;9.05;2.50;;;8.40;98.10;;;;;;4951081;29;20035;-94
2023/12/22 08:51:14;;;;;;;11.82;2.90;;;8.50;96.60;;;;;;4942818;29;20024;-94
2023/12/22 08:53:40;;;;;;;11.38;2.75;;;8.60;95.00;;;;;;4932113;28;20040;-95
2023/12/22 08:56:08;;;;;;;13.15;2.67;;;8.60;94.50;;;;;;4934955;29;20047;-94
2023/12/22 08:58:37;;;;;;;16.70;3.47;;;8.60;94.30;;;;;;4928608;29;20008;-94
2023/12/22 09:01:03;;;;;;;13.95;2.53;;;8.70;93.60;;;;;;4948044;29;20076;-96
2023/12/22 09:03:43;;;;;;;;;;;;;;;;;;;;;
2023/12/22 09:06:09;;;;;;;9.30;2.85;;;8.70;93.30;;;;;;4949690;29;20062;-94
2023/12/22 09:08:38;;;;;;;16.73;2.75;;;8.60;94.60;;;;;;4950496;29;20016;-95
2023/12/22 09:11:16;;;;;;;12.35;1.90;;;8.60;93.40;;;;;;4947554;29;20053;-95
2023/12/22 09:13:43;;;;;;;14.68;3.05;;;8.70;92.50;;;;;;4949740;29;20111;-95
2023/12/22 09:16:15;;;;;;;7.32;2.33;;;8.70;92.30;;;;;;4935970;29;20080;-94
2023/12/22 09:18:44;;;;;;;13.05;3.15;;;8.70;91.50;;;;;;4926045;29;20115;-95
2023/12/22 09:21:11;;;;;;;13.43;3.22;;;8.80;91.30;;;;;;4940109;29;20103;-94
2023/12/22 09:23:36;;;;;;;10.43;2.47;;;8.70;91.60;;;;;;4942510;29;20039;-95
2023/12/22 09:26:04;;;;;;;8.77;2.80;;;8.80;92.80;;;;;;4944286;29;20048;-95
2023/12/22 09:28:33;;;;;;;11.60;3.25;;;8.70;91.80;;;;;;4940066;29;20031;-95
2023/12/22 09:30:59;;;;;;;8.00;2.17;;;8.80;91.30;;;;;;4928235;29;20024;-94
2023/12/22 09:35:55;;;;;;;14.48;2.85;;;8.70;92.00;;;;;;4941040;29;20044;-93
2023/12/22 09:38:24;;;;;;;11.63;2.28;;;8.70;92.70;;;;;;4916698;29;20607;-91
2023/12/22 09:40:50;;;;;;;17.45;2.92;;;8.80;92.70;;;;;;4923053;29;20044;-92
2023/12/22 09:43:18;;;;;;;9.25;2.47;;;8.80;91.70;;;;;;4908722;29;20115;-92
2023/12/22 09:45:45;;;;;;;20.35;3.20;;;8.80;92.00;;;;;;4906328;29;20087;-90
2023/12/22 09:48:27;;;;;;;11.27;3.20;;;8.80;92.00;;;;;;4906316;29;20036;-93
2023/12/22 09:51:03;;;;;;;14.55;2.78;;;8.70;92.00;;;;;;4907268;29;20024;-92
2023/12/22 09:53:31;;;;;;;14.52;3.45;;;8.80;92.90;;;;;;4906441;29;20036;-91
2023/12/22 09:55:58;;;;;;;11.88;2.85;;;8.80;91.80;;;;;;4905746;29;20032;-91
2023/12/22 09:58:24;;;;;;;14.98;3.03;;;8.80;91.90;;;;;;4905700;29;20024;-91
2023/12/22 10:00:52;;;;;;;11.98;3.22;;;8.80;92.00;;;;;;4906404;29;20120;-91
2023/12/22 10:03:19;;;;;;;;;;;8.80;92.20;;;;;;4911618;29;20028;-91
2023/12/22 10:05:45;;;;;;;10.95;3.47;;;8.80;93.40;;;;;;4906129;29;20416;-92
2023/12/22 10:08:11;;;;;;;11.73;2.88;;;8.80;92.70;;;;;;4895247;29;20040;-91
2023/12/22 10:10:40;;;;;;;16.20;4.70;;;8.80;93.80;;;;;;4906547;29;20413;-92
2023/12/22 10:13:09;;;;;;;17.45;3.25;;;8.80;94.50;;;;;;4918108;29;20036;-91
2023/12/22 10:15:40;;;;;;;10.07;3.33;;;8.80;95.40;;;;;;4905942;29;20061;-92
2023/12/22 10:18:12;;;;;;;13.02;3.45;;;8.70;97.40;;;;;;4922944;29;20024;-93
2023/12/22 10:20:38;;;;;;;13.30;4.10;;;8.60;99.60;;;;;;4922487;29;20116;-91
2023/12/22 10:23:04;;;;;;;14.57;3.78;;;8.60;99.90;;;;;;4922416;29;20028;-89
2023/12/22 10:25:30;;;;;;;9.98;2.55;;;8.40;99.90;;;;;;4906599;29;20039;-93
2023/12/22 10:27:56;;;;;;;13.45;2.80;;;8.40;99.90;;;;;;4923576;29;20024;-90
2023/12/22 10:30:26;;;;;;;22.10;4.57;;;8.30;99.90;;;;;;4906381;29;20031;-92
2023/12/22 10:32:52;;;;;;;15.32;3.20;;;8.10;99.90;;;;;;4902543;29;20033;-92
2023/12/22 10:35:18;;;;;;;15.88;3.35;;;8.10;99.90;;;;;;4904936;29;20036;-91
2023/12/22 10:37:46;;;;;;;9.38;2.20;;;8.10;99.90;;;;;;4920465;29;20024;-92
2023/12/22 10:40:13;;;;;;;12.48;2.85;;;8.00;99.90;;;;;;4922771;29;20092;-91
2023/12/22 10:42:41;;;;;;;11.38;3.03;;;8.00;99.90;;;;;;4923184;29;20028;-91
2023/12/22 10:45:06;;;;;;;;;;;8.00;99.90;;;;;;4922684;29;20032;-93
2023/12/22 10:47:32;;;;;;;18.20;5.00;;;7.90;99.90;;;;;;4903850;29;20397;-93
2023/12/22 10:50:04;;;;;;;8.75;2.60;;;7.90;99.90;;;;;;4921954;29;20095;-91
2023/12/22 10:52:29;;;;;;;11.13;3.70;;;7.90;99.90;;;;;;4921408;29;20099;-92
2023/12/22 10:54:59;;;;;;;12.63;3.63;;;7.90;99.90;;;;;;4920561;29;20055;-92
2023/12/22 10:57:26;;;;;;;15.27;2.88;;;7.90;99.90;;;;;;4893709;29;20024;-92
2023/12/22 10:59:55;;;;;;;12.30;3.80;;;7.90;99.90;;;;;;4904450;29;20098;-91
2023/12/22 11:02:24;;;;;;;12.52;2.78;;;7.90;99.90;;;;;;4918368;29;20016;-92
2023/12/22 11:05:02;;;;;;;15.95;2.53;;;7.80;99.90;;;;;;4919225;29;20056;-92
2023/12/22 11:07:28;;;;;;;9.05;3.95;;;7.90;99.90;;;;;;4886857;29;20028;-92
2023/12/22 11:10:01;;;;;;;15.05;3.38;;;7.90;99.90;;;;;;4920439;29;20448;-90
2023/12/22 11:12:28;;;;;;;14.95;3.75;;;7.90;99.90;;;;;;4921211;29;20514;-92
2023/12/22 11:14:55;;;;;;;12.35;3.50;;;7.90;99.90;;;;;;4905687;29;20167;-92
2023/12/22 11:17:22;;;;;;;9.98;2.50;;;8.00;99.90;;;;;;4905868;29;20020;-92
2023/12/22 11:19:53;;;;;;;17.17;3.67;;;8.00;99.90;;;;;;4924038;29;20044;-92
2023/12/22 11:22:22;;;;;;;5.95;2.45;;;8.00;99.90;;;;;;4899052;29;20495;-92
2023/12/22 11:24:49;;;;;;;11.65;3.25;;;8.00;99.90;;;;;;4914292;29;20550;-93
2023/12/22 11:27:20;;;;;;;12.05;4.03;;;8.00;99.90;;;;;;4915079;29;20399;-92
2023/12/22 11:29:50;;;;;;;11.40;2.47;;;8.00;99.90;;;;;;4922430;29;20040;-92
2023/12/22 11:32:17;;;;;;;9.63;2.13;;;8.00;99.90;;;;;;4922049;29;20043;-92
2023/12/22 11:34:45;;;;;;;9.93;4.38;;;8.00;99.90;;;;;;4908272;29;20505;-92
2023/12/22 11:37:15;;;;;;;6.55;2.67;;;8.00;99.90;;;;;;4902069;29;20119;-92
2023/12/22 11:39:42;;;;;;;4.55;2.42;;;7.90;99.90;;;;;;4923763;29;20031;-94
2023/12/22 11:42:43;;;;;;;5.90;2.95;;;8.00;99.90;;;;;;4924262;29;20589;-92
2023/12/22 11:45:18;;;;;;;6.45;2.85;;;7.90;99.90;;;;;;4898919;29;20107;-93
2023/12/22 11:47:45;;;;;;;6.97;1.92;;;7.90;99.90;;;;;;4922009;29;20024;-92
2023/12/22 11:50:12;;;;;;;4.90;1.98;;;7.90;99.90;;;;;;4921347;29;20059;-92
2023/12/22 11:52:38;;;;;;;6.22;1.55;;;7.90;99.90;;;;;;4899378;29;20044;-92
2023/12/22 11:55:07;;;;;;;6.25;1.73;;;7.90;99.90;;;;;;4924643;29;20040;-90
2023/12/22 11:57:35;;;;;;;4.10;1.52;;;7.90;99.90;;;;;;4914039;29;20028;-92
2023/12/22 12:00:19;;;;;;;9.48;3.17;;;7.90;99.90;;;;;;4908145;29;20024;-91
2023/12/22 12:02:54;;;;;;;8.07;2.92;;;7.90;99.90;;;;;;4921571;29;20023;-92
2023/12/22 12:05:20;;;;;;;9.55;2.95;;;7.80;99.90;;;;;;4924199;29;20119;-91
2023/12/22 12:07:49;;;;;;;8.02;5.18;;;7.80;99.90;;;;;;4906606;29;20493;-94
2023/12/22 12:10:32;;;;;;;11.38;2.78;;;7.90;99.90;;;;;;4925752;29;20024;-91
2023/12/22 12:13:15;;;;;;;7.40;2.78;;;7.80;99.90;;;;;;4925822;29;20091;-93
2023/12/22 12:15:42;;;;;;;9.00;2.42;;;7.90;99.90;;;;;;4903921;29;20034;-92
2023/12/22 12:18:09;;;;;;;8.52;2.28;;;7.90;99.90;;;;;;4906929;29;20055;-93
2023/12/22 12:20:38;;;;;;;5.10;2.60;;;7.90;99.90;;;;;;4915061;29;20093;-93
2023/12/22 12:23:05;;;;;;;4.25;2.30;;;7.90;99.90;;;;;;4924709;29;20020;-92
2023/12/22 12:25:33;;;;;;;9.57;2.50;;;7.90;99.90;;;;;;4924465;29;20039;-92
2023/12/22 12:28:06;;;;;;;5.95;2.10;;;7.90;99.90;;;;;;4916492;29;20080;-92
2023/12/22 12:30:33;;;;;;;6.35;2.40;;;7.90;99.90;;;;;;4926031;29;20043;-92
2023/12/22 12:33:06;;;;;;;5.70;2.05;;;7.90;99.90;;;;;;4909033;29;20032;-92
2023/12/22 12:35:57;;;;;;;6.38;2.28;;;8.00;99.90;;;;;;4915009;29;20036;-93
2023/12/22 12:39:07;;;;;;;5.80;2.05;;;8.00;99.90;;;;;;4903682;29;20492;-92
2023/12/22 12:41:36;;;;;;;6.22;2.20;;;8.00;99.90;;;;;;4891083;29;20268;-93
2023/12/22 12:44:07;;;;;;;8.50;2.22;;;8.10;99.90;;;;;;4872200;29;20027;-92
2023/12/22 12:46:37;;;;;;;3.50;1.92;;;8.20;99.90;;;;;;4898728;29;20028;-91
2023/12/22 12:49:07;;;;;;;4.38;1.67;;;8.30;99.90;;;;;;4918173;29;20416;-93
2023/12/22 12:51:41;;;;;;;2.28;1.17;;;8.30;99.90;;;;;;4934723;29;20036;-94
2023/12/22 12:54:08;;;;;;;2.95;1.50;;;8.40;99.90;;;;;;4908593;29;20027;-92
2023/12/22 12:56:51;;;;;;;4.97;1.27;;;8.40;99.90;;;;;;4928707;29;20030;-94
2023/12/22 12:59:18;;;;;;;1.88;1.75;;;8.50;99.90;;;;;;4919246;29;20052;-92
2023/12/22 13:01:48;;;;;;;3.10;1.15;;;8.50;99.90;;;;;;4930928;29;20058;-94